Meath Environmental Platform

Observations for Trim Market St

Time AQI Temp °C Hum % Pres Pa CO μg/m³ H₂S μg/m³ NO μg/m³ NO₂ μg/m³ O₃ μg/m³ SO₂ μg/m³ PM1 μg/m³ PM2.5 μg/m³ PM10 μg/m³
Thursday 9 July 2026
01:49 1 18.5 71 52,139 0 0 0 4.85 13.3 0 0.71 2.99 5.06
01:48 1 18.5 71 52,105 0 0 0 2.65 9.17 0 0.71 2.5 4.44
01:47 1 18.5 71 52,088 0 0 0 2.75 10 0 0.71 2.5 4.44
01:46 1 18.5 71 52,070 0 0 0 4.85 15.87 0 0.71 2.02 4.44
01:42 1 18.5 71 51,811 0 0 0 2.95 8.02 0 0 2.02 3.82
01:41 1 18.6 71 51,706 0 0 0 2.32 14.09 0 2.14 2.99 5.06
01:39 1 18.6 71 51,556 0 0 0 3.62 9.9 0 1.43 2.99 5.67
01:38 1 18.6 71 51,540 0 0 0 5.82 10.93 0 1.43 2.99 5.67
01:34 1 18.6 71 51,362 0 0 0 1.22 9.78 0 0.71 2.02 3.82
01:33 1 18.6 71 51,347 0 0 0 7.72 13.96 0 0 2.02 3.82
01:24 1 18.7 71 51,326 0 0 0 4.72 8.7 0 0 2.03 4.43
01:23 1 18.7 71 51,324 0 0 0 4.02 13.49 0 0 2.03 3.81
01:22 1 18.7 71 51,330 0 0 0 2.92 10.14 0 0.71 2.03 3.81
01:21 1 18.7 71 51,367 0 0 0 8.22 17.31 0 0.71 3 5.67
01:20 1 18.8 71 51,417 0 0 0 4.69 11.08 0 0 1.54 3.19
01:19 1 18.8 71 51,456 0 0 0 5.39 12.51 0 0.71 2.03 3.81
01:18 1 18.8 71 51,502 0 0 0 5.99 14.06 0 0.71 2.51 4.43
01:17 1 18.8 71 51,571 0 0 0 6.11 12.98 0 0 2.52 4.43
01:16 1 18.8 71 51,633 0 0 0 7.49 10.14 0 1.43 2.51 4.43
01:15 1 18.8 71 51,691 0 0 0 3.91 14.41 0 0 1.55 3.19